sensor_id;sensor_type;location;lat;lon;timestamp;P1;durP1;ratioP1;P2;durP2;ratioP2
47239;SDS011;32978;53.586;10.052;2023-04-24T00:00:55;8.77;;;6.88;;
47239;SDS011;32978;53.586;10.052;2023-04-24T00:05:57;8.57;;;7.60;;
47239;SDS011;32978;53.586;10.052;2023-04-24T00:10:55;8.23;;;7.25;;
47239;SDS011;32978;53.586;10.052;2023-04-24T00:15:51;8.45;;;7.18;;
47239;SDS011;32978;53.586;10.052;2023-04-24T00:20:48;7.57;;;6.78;;
47239;SDS011;32978;53.586;10.052;2023-04-24T00:25:44;8.05;;;7.35;;
47239;SDS011;32978;53.586;10.052;2023-04-24T00:30:41;8.85;;;7.28;;
47239;SDS011;32978;53.586;10.052;2023-04-24T00:35:37;7.20;;;6.43;;
47239;SDS011;32978;53.586;10.052;2023-04-24T00:40:34;7.78;;;7.07;;
47239;SDS011;32978;53.586;10.052;2023-04-24T00:45:30;9.38;;;7.05;;
47239;SDS011;32978;53.586;10.052;2023-04-24T00:50:27;8.05;;;7.25;;
47239;SDS011;32978;53.586;10.052;2023-04-24T00:55:24;8.05;;;7.25;;
47239;SDS011;32978;53.586;10.052;2023-04-24T01:00:22;8.52;;;7.53;;
47239;SDS011;32978;53.586;10.052;2023-04-24T01:05:18;7.95;;;7.25;;
47239;SDS011;32978;53.586;10.052;2023-04-24T01:10:15;8.60;;;7.72;;
47239;SDS011;32978;53.586;10.052;2023-04-24T01:15:13;8.93;;;7.90;;
47239;SDS011;32978;53.586;10.052;2023-04-24T01:20:09;8.60;;;7.78;;
47239;SDS011;32978;53.586;10.052;2023-04-24T01:25:07;7.93;;;7.20;;
47239;SDS011;32978;53.586;10.052;2023-04-24T01:30:03;9.63;;;8.65;;
47239;SDS011;32978;53.586;10.052;2023-04-24T01:35:01;8.93;;;7.32;;
47239;SDS011;32978;53.586;10.052;2023-04-24T01:39:58;12.57;;;7.95;;
47239;SDS011;32978;53.586;10.052;2023-04-24T01:44:54;8.35;;;7.55;;
47239;SDS011;32978;53.586;10.052;2023-04-24T01:49:51;8.32;;;7.53;;
47239;SDS011;32978;53.586;10.052;2023-04-24T01:54:48;7.22;;;6.53;;
47239;SDS011;32978;53.586;10.052;2023-04-24T01:59:44;7.65;;;6.07;;
47239;SDS011;32978;53.586;10.052;2023-04-24T02:04:41;6.80;;;6.10;;
47239;SDS011;32978;53.586;10.052;2023-04-24T02:09:37;7.20;;;6.50;;
47239;SDS011;32978;53.586;10.052;2023-04-24T02:14:34;5.65;;;5.15;;
47239;SDS011;32978;53.586;10.052;2023-04-24T02:19:30;6.20;;;5.63;;
47239;SDS011;32978;53.586;10.052;2023-04-24T02:24:27;6.50;;;5.90;;
47239;SDS011;32978;53.586;10.052;2023-04-24T02:29:24;6.63;;;6.03;;
47239;SDS011;32978;53.586;10.052;2023-04-24T02:34:20;6.78;;;6.18;;
47239;SDS011;32978;53.586;10.052;2023-04-24T02:39:17;6.70;;;5.80;;
47239;SDS011;32978;53.586;10.052;2023-04-24T02:44:14;5.93;;;5.43;;
47239;SDS011;32978;53.586;10.052;2023-04-24T02:49:11;6.80;;;6.20;;
47239;SDS011;32978;53.586;10.052;2023-04-24T02:54:08;6.00;;;5.50;;
47239;SDS011;32978;53.586;10.052;2023-04-24T02:59:08;6.03;;;5.43;;
47239;SDS011;32978;53.586;10.052;2023-04-24T03:04:06;6.10;;;5.50;;
47239;SDS011;32978;53.586;10.052;2023-04-24T03:09:03;6.03;;;5.53;;
47239;SDS011;32978;53.586;10.052;2023-04-24T03:13:59;5.93;;;5.43;;
47239;SDS011;32978;53.586;10.052;2023-04-24T03:18:56;6.93;;;6.32;;
47239;SDS011;32978;53.586;10.052;2023-04-24T03:23:52;7.40;;;5.10;;
47239;SDS011;32978;53.586;10.052;2023-04-24T03:28:49;6.43;;;5.28;;
47239;SDS011;32978;53.586;10.052;2023-04-24T03:33:45;5.38;;;4.97;;
47239;SDS011;32978;53.586;10.052;2023-04-24T03:38:44;5.38;;;4.80;;
47239;SDS011;32978;53.586;10.052;2023-04-24T03:43:41;5.88;;;5.30;;
47239;SDS011;32978;53.586;10.052;2023-04-24T03:48:38;6.40;;;5.80;;
47239;SDS011;32978;53.586;10.052;2023-04-24T03:53:34;6.63;;;5.40;;
47239;SDS011;32978;53.586;10.052;2023-04-24T03:58:31;6.00;;;5.50;;
47239;SDS011;32978;53.586;10.052;2023-04-24T04:03:27;5.88;;;5.38;;
47239;SDS011;32978;53.586;10.052;2023-04-24T04:08:24;6.55;;;5.95;;
47239;SDS011;32978;53.586;10.052;2023-04-24T04:13:20;6.15;;;5.72;;
47239;SDS011;32978;53.586;10.052;2023-04-24T04:18:17;6.40;;;5.80;;
47239;SDS011;32978;53.586;10.052;2023-04-24T04:23:13;6.40;;;5.90;;
47239;SDS011;32978;53.586;10.052;2023-04-24T04:28:10;6.80;;;6.20;;
47239;SDS011;32978;53.586;10.052;2023-04-24T04:33:07;6.13;;;5.63;;
47239;SDS011;32978;53.586;10.052;2023-04-24T04:38:04;6.05;;;5.60;;
47239;SDS011;32978;53.586;10.052;2023-04-24T04:43:01;5.68;;;5.20;;
47239;SDS011;32978;53.586;10.052;2023-04-24T04:47:57;5.93;;;5.43;;
47239;SDS011;32978;53.586;10.052;2023-04-24T04:52:54;5.80;;;5.28;;
47239;SDS011;32978;53.586;10.052;2023-04-24T04:57:51;6.13;;;5.07;;
47239;SDS011;32978;53.586;10.052;2023-04-24T05:02:47;5.45;;;5.05;;
47239;SDS011;32978;53.586;10.052;2023-04-24T05:07:44;6.25;;;5.75;;
47239;SDS011;32978;53.586;10.052;2023-04-24T05:12:41;5.72;;;5.00;;
47239;SDS011;32978;53.586;10.052;2023-04-24T05:17:40;5.60;;;5.20;;
47239;SDS011;32978;53.586;10.052;2023-04-24T05:22:37;7.28;;;6.60;;
47239;SDS011;32978;53.586;10.052;2023-04-24T05:27:33;7.15;;;6.63;;
47239;SDS011;32978;53.586;10.052;2023-04-24T05:32:30;6.80;;;6.30;;
47239;SDS011;32978;53.586;10.052;2023-04-24T05:37:26;6.50;;;6.00;;
47239;SDS011;32978;53.586;10.052;2023-04-24T05:42:23;5.88;;;5.38;;
47239;SDS011;32978;53.586;10.052;2023-04-24T05:47:20;6.07;;;5.53;;
47239;SDS011;32978;53.586;10.052;2023-04-24T05:52:18;5.80;;;5.20;;
47239;SDS011;32978;53.586;10.052;2023-04-24T05:57:14;5.63;;;5.18;;
47239;SDS011;32978;53.586;10.052;2023-04-24T06:02:11;5.63;;;5.13;;
47239;SDS011;32978;53.586;10.052;2023-04-24T06:07:08;6.30;;;5.80;;
47239;SDS011;32978;53.586;10.052;2023-04-24T06:12:04;5.97;;;5.47;;
47239;SDS011;32978;53.586;10.052;2023-04-24T06:17:01;5.88;;;5.38;;
47239;SDS011;32978;53.586;10.052;2023-04-24T06:21:57;5.90;;;5.40;;
47239;SDS011;32978;53.586;10.052;2023-04-24T06:26:54;6.32;;;5.82;;
47239;SDS011;32978;53.586;10.052;2023-04-24T06:31:50;6.00;;;5.50;;
47239;SDS011;32978;53.586;10.052;2023-04-24T06:36:47;5.78;;;5.28;;
47239;SDS011;32978;53.586;10.052;2023-04-24T06:41:43;6.00;;;5.60;;
47239;SDS011;32978;53.586;10.052;2023-04-24T06:46:40;5.93;;;5.43;;
47239;SDS011;32978;53.586;10.052;2023-04-24T06:51:37;6.40;;;5.80;;
47239;SDS011;32978;53.586;10.052;2023-04-24T06:56:33;6.05;;;5.55;;
47239;SDS011;32978;53.586;10.052;2023-04-24T07:01:30;6.45;;;5.95;;
47239;SDS011;32978;53.586;10.052;2023-04-24T07:06:27;6.15;;;5.65;;
47239;SDS011;32978;53.586;10.052;2023-04-24T07:11:23;8.80;;;6.78;;
47239;SDS011;32978;53.586;10.052;2023-04-24T07:16:19;7.00;;;6.32;;
47239;SDS011;32978;53.586;10.052;2023-04-24T07:21:16;7.00;;;6.40;;
47239;SDS011;32978;53.586;10.052;2023-04-24T07:26:12;7.47;;;6.88;;
47239;SDS011;32978;53.586;10.052;2023-04-24T07:31:10;7.50;;;6.85;;
47239;SDS011;32978;53.586;10.052;2023-04-24T07:36:07;7.60;;;6.80;;
47239;SDS011;32978;53.586;10.052;2023-04-24T07:41:04;7.43;;;6.75;;
47239;SDS011;32978;53.586;10.052;2023-04-24T07:46:00;7.65;;;7.05;;
47239;SDS011;32978;53.586;10.052;2023-04-24T07:50:57;8.52;;;6.55;;
47239;SDS011;32978;53.586;10.052;2023-04-24T07:55:54;6.97;;;6.47;;
47239;SDS011;32978;53.586;10.052;2023-04-24T08:00:51;7.68;;;7.07;;
47239;SDS011;32978;53.586;10.052;2023-04-24T08:05:48;7.65;;;7.05;;
47239;SDS011;32978;53.586;10.052;2023-04-24T08:10:47;7.28;;;6.72;;
47239;SDS011;32978;53.586;10.052;2023-04-24T08:15:43;10.98;;;7.28;;
47239;SDS011;32978;53.586;10.052;2023-04-24T08:20:40;9.98;;;8.95;;
47239;SDS011;32978;53.586;10.052;2023-04-24T08:25:36;9.05;;;7.80;;
47239;SDS011;32978;53.586;10.052;2023-04-24T08:30:33;8.98;;;8.18;;
47239;SDS011;32978;53.586;10.052;2023-04-24T08:35:29;9.02;;;8.18;;
47239;SDS011;32978;53.586;10.052;2023-04-24T08:40:27;8.57;;;7.78;;
47239;SDS011;32978;53.586;10.052;2023-04-24T08:45:26;8.27;;;7.57;;
47239;SDS011;32978;53.586;10.052;2023-04-24T08:50:22;7.97;;;7.20;;
47239;SDS011;32978;53.586;10.052;2023-04-24T08:55:19;8.57;;;7.78;;
47239;SDS011;32978;53.586;10.052;2023-04-24T09:00:16;8.38;;;7.68;;
47239;SDS011;32978;53.586;10.052;2023-04-24T09:05:14;9.18;;;8.20;;
47239;SDS011;32978;53.586;10.052;2023-04-24T09:10:13;8.15;;;7.45;;
47239;SDS011;32978;53.586;10.052;2023-04-24T09:15:11;8.77;;;7.97;;
47239;SDS011;32978;53.586;10.052;2023-04-24T09:20:07;9.63;;;8.85;;
47239;SDS011;32978;53.586;10.052;2023-04-24T09:25:05;8.98;;;8.18;;
47239;SDS011;32978;53.586;10.052;2023-04-24T09:30:03;9.93;;;9.13;;
47239;SDS011;32978;53.586;10.052;2023-04-24T09:35:06;10.57;;;9.57;;
47239;SDS011;32978;53.586;10.052;2023-04-24T09:45:12;9.77;;;8.88;;
47239;SDS011;32978;53.586;10.052;2023-04-24T09:50:14;9.88;;;9.10;;
47239;SDS011;32978;53.586;10.052;2023-04-24T09:55:18;9.55;;;8.75;;
47239;SDS011;32978;53.586;10.052;2023-04-24T10:00:21;9.48;;;8.55;;
47239;SDS011;32978;53.586;10.052;2023-04-24T10:05:18;9.50;;;8.70;;
47239;SDS011;32978;53.586;10.052;2023-04-24T10:10:14;10.05;;;9.07;;
47239;SDS011;32978;53.586;10.052;2023-04-24T10:15:11;9.70;;;8.80;;
47239;SDS011;32978;53.586;10.052;2023-04-24T10:20:09;9.27;;;8.38;;
47239;SDS011;32978;53.586;10.052;2023-04-24T10:25:06;10.50;;;9.60;;
47239;SDS011;32978;53.586;10.052;2023-04-24T10:30:04;11.70;;;10.55;;
47239;SDS011;32978;53.586;10.052;2023-04-24T10:35:02;12.32;;;10.98;;
47239;SDS011;32978;53.586;10.052;2023-04-24T10:39:59;12.10;;;10.93;;
47239;SDS011;32978;53.586;10.052;2023-04-24T10:44:56;11.98;;;10.75;;
47239;SDS011;32978;53.586;10.052;2023-04-24T10:49:54;12.32;;;11.00;;
47239;SDS011;32978;53.586;10.052;2023-04-24T10:54:54;11.82;;;10.75;;
47239;SDS011;32978;53.586;10.052;2023-04-24T11:00:12;13.07;;;11.88;;
47239;SDS011;32978;53.586;10.052;2023-04-24T11:05:17;13.23;;;11.82;;
47239;SDS011;32978;53.586;10.052;2023-04-24T11:10:25;12.57;;;11.27;;
47239;SDS011;32978;53.586;10.052;2023-04-24T11:15:22;12.57;;;11.38;;
47239;SDS011;32978;53.586;10.052;2023-04-24T11:20:18;13.88;;;11.05;;
47239;SDS011;32978;53.586;10.052;2023-04-24T11:25:23;11.85;;;10.57;;
47239;SDS011;32978;53.586;10.052;2023-04-24T11:30:20;12.80;;;11.52;;
47239;SDS011;32978;53.586;10.052;2023-04-24T11:35:21;13.95;;;11.55;;
47239;SDS011;32978;53.586;10.052;2023-04-24T11:40:21;11.20;;;10.13;;
47239;SDS011;32978;53.586;10.052;2023-04-24T11:45:23;13.15;;;11.48;;
47239;SDS011;32978;53.586;10.052;2023-04-24T11:50:23;11.35;;;10.32;;
47239;SDS011;32978;53.586;10.052;2023-04-24T11:55:26;10.97;;;9.83;;
47239;SDS011;32978;53.586;10.052;2023-04-24T12:00:24;10.98;;;9.82;;
47239;SDS011;32978;53.586;10.052;2023-04-24T12:05:23;10.00;;;9.00;;
47239;SDS011;32978;53.586;10.052;2023-04-24T12:10:21;11.63;;;9.60;;
47239;SDS011;32978;53.586;10.052;2023-04-24T12:15:19;10.73;;;9.13;;
47239;SDS011;32978;53.586;10.052;2023-04-24T12:20:16;10.73;;;9.63;;
47239;SDS011;32978;53.586;10.052;2023-04-24T12:25:16;10.65;;;9.02;;
47239;SDS011;32978;53.586;10.052;2023-04-24T12:30:15;9.68;;;8.77;;
47239;SDS011;32978;53.586;10.052;2023-04-24T12:35:12;10.65;;;8.98;;
47239;SDS011;32978;53.586;10.052;2023-04-24T12:40:15;11.05;;;9.10;;
47239;SDS011;32978;53.586;10.052;2023-04-24T12:45:12;9.55;;;8.65;;
47239;SDS011;32978;53.586;10.052;2023-04-24T12:50:10;10.55;;;8.77;;
47239;SDS011;32978;53.586;10.052;2023-04-24T12:55:07;9.82;;;8.80;;
47239;SDS011;32978;53.586;10.052;2023-04-24T13:00:06;11.13;;;9.98;;
47239;SDS011;32978;53.586;10.052;2023-04-24T13:05:03;10.27;;;9.32;;
47239;SDS011;32978;53.586;10.052;2023-04-24T13:10:00;10.75;;;9.68;;
47239;SDS011;32978;53.586;10.052;2023-04-24T13:14:57;10.05;;;9.15;;
47239;SDS011;32978;53.586;10.052;2023-04-24T13:19:54;11.82;;;10.07;;
47239;SDS011;32978;53.586;10.052;2023-04-24T13:24:51;11.20;;;10.10;;
47239;SDS011;32978;53.586;10.052;2023-04-24T13:29:47;11.25;;;10.02;;
47239;SDS011;32978;53.586;10.052;2023-04-24T13:34:44;10.38;;;9.27;;
47239;SDS011;32978;53.586;10.052;2023-04-24T13:39:40;10.20;;;9.30;;
47239;SDS011;32978;53.586;10.052;2023-04-24T13:44:40;10.68;;;9.57;;
47239;SDS011;32978;53.586;10.052;2023-04-24T13:49:36;9.63;;;8.23;;
47239;SDS011;32978;53.586;10.052;2023-04-24T13:54:33;9.45;;;8.65;;
47239;SDS011;32978;53.586;10.052;2023-04-24T13:59:29;10.48;;;9.52;;
47239;SDS011;32978;53.586;10.052;2023-04-24T14:04:26;9.60;;;8.77;;
47239;SDS011;32978;53.586;10.052;2023-04-24T14:09:22;13.02;;;9.02;;
47239;SDS011;32978;53.586;10.052;2023-04-24T14:14:19;8.65;;;7.85;;
47239;SDS011;32978;53.586;10.052;2023-04-24T14:19:15;11.00;;;9.05;;
47239;SDS011;32978;53.586;10.052;2023-04-24T14:24:12;9.02;;;8.32;;
47239;SDS011;32978;53.586;10.052;2023-04-24T14:29:08;10.30;;;9.05;;
47239;SDS011;32978;53.586;10.052;2023-04-24T14:34:10;9.10;;;8.40;;
47239;SDS011;32978;53.586;10.052;2023-04-24T14:39:07;8.60;;;7.90;;
47239;SDS011;32978;53.586;10.052;2023-04-24T14:44:03;9.30;;;8.43;;
47239;SDS011;32978;53.586;10.052;2023-04-24T14:49:00;9.75;;;8.75;;
47239;SDS011;32978;53.586;10.052;2023-04-24T14:53:57;11.50;;;10.50;;
47239;SDS011;32978;53.586;10.052;2023-04-24T14:58:54;12.85;;;11.65;;
47239;SDS011;32978;53.586;10.052;2023-04-24T15:03:51;12.77;;;11.68;;
47239;SDS011;32978;53.586;10.052;2023-04-24T15:08:48;13.30;;;12.10;;
47239;SDS011;32978;53.586;10.052;2023-04-24T15:13:45;13.18;;;11.98;;
47239;SDS011;32978;53.586;10.052;2023-04-24T15:18:43;12.43;;;11.18;;
47239;SDS011;32978;53.586;10.052;2023-04-24T15:23:39;11.93;;;10.80;;
47239;SDS011;32978;53.586;10.052;2023-04-24T15:28:36;10.43;;;9.52;;
47239;SDS011;32978;53.586;10.052;2023-04-24T15:33:32;9.15;;;8.38;;
47239;SDS011;32978;53.586;10.052;2023-04-24T15:38:29;7.95;;;7.25;;
47239;SDS011;32978;53.586;10.052;2023-04-24T15:43:25;8.10;;;7.30;;
47239;SDS011;32978;53.586;10.052;2023-04-24T15:48:22;7.18;;;6.57;;
47239;SDS011;32978;53.586;10.052;2023-04-24T15:53:18;9.45;;;8.55;;
47239;SDS011;32978;53.586;10.052;2023-04-24T15:58:18;9.57;;;8.77;;
47239;SDS011;32978;53.586;10.052;2023-04-24T16:03:16;10.98;;;9.93;;
47239;SDS011;32978;53.586;10.052;2023-04-24T16:08:13;11.38;;;10.30;;
47239;SDS011;32978;53.586;10.052;2023-04-24T16:13:13;15.68;;;12.40;;
47239;SDS011;32978;53.586;10.052;2023-04-24T16:18:10;12.85;;;11.55;;
47239;SDS011;32978;53.586;10.052;2023-04-24T16:23:07;12.43;;;10.60;;
47239;SDS011;32978;53.586;10.052;2023-04-24T16:28:03;12.05;;;10.60;;
47239;SDS011;32978;53.586;10.052;2023-04-24T16:33:00;10.90;;;9.15;;
47239;SDS011;32978;53.586;10.052;2023-04-24T16:38:00;8.63;;;7.82;;
47239;SDS011;32978;53.586;10.052;2023-04-24T16:42:58;8.00;;;7.22;;
47239;SDS011;32978;53.586;10.052;2023-04-24T16:47:54;8.38;;;7.63;;
47239;SDS011;32978;53.586;10.052;2023-04-24T16:52:51;8.07;;;7.35;;
47239;SDS011;32978;53.586;10.052;2023-04-24T16:57:48;7.82;;;7.10;;
47239;SDS011;32978;53.586;10.052;2023-04-24T17:02:44;7.75;;;7.03;;
47239;SDS011;32978;53.586;10.052;2023-04-24T17:07:43;7.93;;;7.20;;
47239;SDS011;32978;53.586;10.052;2023-04-24T17:12:40;9.77;;;7.90;;
47239;SDS011;32978;53.586;10.052;2023-04-24T17:17:37;8.85;;;7.95;;
47239;SDS011;32978;53.586;10.052;2023-04-24T17:22:33;10.45;;;8.95;;
47239;SDS011;32978;53.586;10.052;2023-04-24T17:27:30;10.93;;;8.13;;
47239;SDS011;32978;53.586;10.052;2023-04-24T17:32:26;9.50;;;8.18;;
47239;SDS011;32978;53.586;10.052;2023-04-24T17:37:23;10.63;;;8.20;;
47239;SDS011;32978;53.586;10.052;2023-04-24T17:42:22;9.50;;;8.40;;
47239;SDS011;32978;53.586;10.052;2023-04-24T17:47:19;12.57;;;9.90;;
47239;SDS011;32978;53.586;10.052;2023-04-24T17:52:17;12.48;;;8.95;;
47239;SDS011;32978;53.586;10.052;2023-04-24T17:57:14;13.35;;;8.88;;
47239;SDS011;32978;53.586;10.052;2023-04-24T18:02:11;10.27;;;8.40;;
47239;SDS011;32978;53.586;10.052;2023-04-24T18:07:11;10.13;;;8.55;;
47239;SDS011;32978;53.586;10.052;2023-04-24T18:12:08;12.10;;;8.95;;
47239;SDS011;32978;53.586;10.052;2023-04-24T18:17:05;13.43;;;8.85;;
47239;SDS011;32978;53.586;10.052;2023-04-24T18:22:02;15.15;;;7.97;;
47239;SDS011;32978;53.586;10.052;2023-04-24T18:27:00;10.65;;;8.02;;
47239;SDS011;32978;53.586;10.052;2023-04-24T18:31:57;13.45;;;8.60;;
47239;SDS011;32978;53.586;10.052;2023-04-24T18:36:53;11.70;;;8.30;;
47239;SDS011;32978;53.586;10.052;2023-04-24T18:41:50;10.13;;;7.65;;
47239;SDS011;32978;53.586;10.052;2023-04-24T18:46:47;8.57;;;6.80;;
47239;SDS011;32978;53.586;10.052;2023-04-24T18:51:43;8.68;;;6.45;;
47239;SDS011;32978;53.586;10.052;2023-04-24T18:56:50;7.03;;;6.32;;
47239;SDS011;32978;53.586;10.052;2023-04-24T19:01:48;8.57;;;6.65;;
47239;SDS011;32978;53.586;10.052;2023-04-24T19:06:44;7.45;;;6.25;;
47239;SDS011;32978;53.586;10.052;2023-04-24T19:11:41;6.85;;;6.20;;
47239;SDS011;32978;53.586;10.052;2023-04-24T19:16:39;8.13;;;6.13;;
47239;SDS011;32978;53.586;10.052;2023-04-24T19:21:36;8.10;;;5.85;;
47239;SDS011;32978;53.586;10.052;2023-04-24T19:26:33;11.10;;;6.18;;
47239;SDS011;32978;53.586;10.052;2023-04-24T19:31:30;9.35;;;7.03;;
47239;SDS011;32978;53.586;10.052;2023-04-24T19:36:27;6.28;;;5.68;;
47239;SDS011;32978;53.586;10.052;2023-04-24T19:41:29;8.38;;;6.13;;
47239;SDS011;32978;53.586;10.052;2023-04-24T19:46:25;8.93;;;5.90;;
47239;SDS011;32978;53.586;10.052;2023-04-24T19:51:22;8.18;;;5.97;;
47239;SDS011;32978;53.586;10.052;2023-04-24T19:56:19;8.48;;;6.05;;
47239;SDS011;32978;53.586;10.052;2023-04-24T20:01:16;8.63;;;6.50;;
47239;SDS011;32978;53.586;10.052;2023-04-24T20:06:12;7.30;;;6.07;;
47239;SDS011;32978;53.586;10.052;2023-04-24T20:11:09;7.53;;;6.32;;
47239;SDS011;32978;53.586;10.052;2023-04-24T20:16:05;16.05;;;6.95;;
47239;SDS011;32978;53.586;10.052;2023-04-24T20:21:07;8.77;;;6.97;;
47239;SDS011;32978;53.586;10.052;2023-04-24T20:26:03;10.70;;;7.78;;
47239;SDS011;32978;53.586;10.052;2023-04-24T20:31:00;7.72;;;6.53;;
47239;SDS011;32978;53.586;10.052;2023-04-24T20:35:56;6.88;;;5.95;;
47239;SDS011;32978;53.586;10.052;2023-04-24T20:40:53;9.93;;;6.55;;
47239;SDS011;32978;53.586;10.052;2023-04-24T20:45:53;10.02;;;6.63;;
47239;SDS011;32978;53.586;10.052;2023-04-24T20:50:49;8.77;;;6.35;;
47239;SDS011;32978;53.586;10.052;2023-04-24T20:55:48;9.48;;;6.20;;
47239;SDS011;32978;53.586;10.052;2023-04-24T21:00:45;11.32;;;6.03;;
47239;SDS011;32978;53.586;10.052;2023-04-24T21:05:42;10.15;;;6.15;;
47239;SDS011;32978;53.586;10.052;2023-04-24T21:10:38;9.18;;;5.88;;
47239;SDS011;32978;53.586;10.052;2023-04-24T21:15:35;9.13;;;6.03;;
47239;SDS011;32978;53.586;10.052;2023-04-24T21:20:31;10.05;;;7.00;;
47239;SDS011;32978;53.586;10.052;2023-04-24T21:25:28;7.85;;;6.50;;
47239;SDS011;32978;53.586;10.052;2023-04-24T21:30:25;8.93;;;6.63;;
47239;SDS011;32978;53.586;10.052;2023-04-24T21:35:22;8.95;;;6.47;;
47239;SDS011;32978;53.586;10.052;2023-04-24T21:40:18;9.80;;;6.85;;
47239;SDS011;32978;53.586;10.052;2023-04-24T21:45:15;8.82;;;5.90;;
47239;SDS011;32978;53.586;10.052;2023-04-24T21:50:11;8.43;;;5.82;;
47239;SDS011;32978;53.586;10.052;2023-04-24T21:55:07;10.23;;;6.88;;
47239;SDS011;32978;53.586;10.052;2023-04-24T22:00:04;8.25;;;6.25;;
47239;SDS011;32978;53.586;10.052;2023-04-24T22:05:03;8.50;;;6.32;;
47239;SDS011;32978;53.586;10.052;2023-04-24T22:10:00;10.73;;;7.20;;
47239;SDS011;32978;53.586;10.052;2023-04-24T22:14:57;7.22;;;6.20;;
47239;SDS011;32978;53.586;10.052;2023-04-24T22:19:53;14.88;;;6.78;;
47239;SDS011;32978;53.586;10.052;2023-04-24T22:24:50;9.45;;;6.45;;
47239;SDS011;32978;53.586;10.052;2023-04-24T22:29:46;9.35;;;7.30;;
47239;SDS011;32978;53.586;10.052;2023-04-24T22:34:42;11.30;;;6.47;;
47239;SDS011;32978;53.586;10.052;2023-04-24T22:39:39;11.27;;;6.88;;
47239;SDS011;32978;53.586;10.052;2023-04-24T22:44:36;11.27;;;7.28;;
47239;SDS011;32978;53.586;10.052;2023-04-24T22:49:33;11.88;;;6.60;;
47239;SDS011;32978;53.586;10.052;2023-04-24T22:54:31;12.55;;;7.35;;
47239;SDS011;32978;53.586;10.052;2023-04-24T22:59:28;10.88;;;7.65;;
47239;SDS011;32978;53.586;10.052;2023-04-24T23:04:25;11.20;;;7.43;;
47239;SDS011;32978;53.586;10.052;2023-04-24T23:09:22;8.48;;;6.32;;
47239;SDS011;32978;53.586;10.052;2023-04-24T23:14:18;19.40;;;8.63;;
47239;SDS011;32978;53.586;10.052;2023-04-24T23:19:17;9.55;;;7.82;;
47239;SDS011;32978;53.586;10.052;2023-04-24T23:24:14;14.80;;;8.13;;
47239;SDS011;32978;53.586;10.052;2023-04-24T23:29:11;12.02;;;7.50;;
47239;SDS011;32978;53.586;10.052;2023-04-24T23:34:07;9.10;;;7.13;;
47239;SDS011;32978;53.586;10.052;2023-04-24T23:39:04;11.80;;;6.90;;
47239;SDS011;32978;53.586;10.052;2023-04-24T23:44:01;8.45;;;6.30;;
47239;SDS011;32978;53.586;10.052;2023-04-24T23:48:58;9.57;;;7.28;;
47239;SDS011;32978;53.586;10.052;2023-04-24T23:53:57;9.73;;;6.40;;
47239;SDS011;32978;53.586;10.052;2023-04-24T23:58:54;11.23;;;7.40;;
